createdAt,value
2023-01-29T00:02:47.539Z,71.77
2023-01-29T00:05:50.289Z,71.96
2023-01-29T00:08:53.062Z,71.87
2023-01-29T00:11:55.824Z,72.04
2023-01-29T00:14:58.535Z,72.08
2023-01-29T00:18:01.326Z,72.32
2023-01-29T00:21:04.211Z,72.14
2023-01-29T00:24:09.447Z,71.84
2023-01-29T00:27:12.255Z,71.87
2023-01-29T00:30:19.363Z,72.13
2023-01-29T00:33:29.648Z,72.13
2023-01-29T00:36:32.382Z,72.09
2023-01-29T00:39:47.428Z,71.96
2023-01-29T00:43:09.419Z,72.14
2023-01-29T00:46:12.199Z,72.18
2023-01-29T00:49:15.076Z,71.98
2023-01-29T00:52:29.714Z,72.11
2023-01-29T00:55:35.173Z,72.01
2023-01-29T00:58:38.038Z,72.21
2023-01-29T01:02:01.381Z,72.06
2023-01-29T01:05:07.768Z,72.15
2023-01-29T01:08:31.172Z,71.89
2023-01-29T01:11:33.991Z,72.02
2023-01-29T01:14:36.750Z,71.60
2023-01-29T01:17:40.830Z,71.90
2023-01-29T01:20:45.404Z,72.56
2023-01-29T01:23:48.421Z,72.36
2023-01-29T01:26:51.350Z,72.03
2023-01-29T01:29:55.726Z,71.91
2023-01-29T01:32:58.811Z,72.07
2023-01-29T01:36:02.317Z,72.17
2023-01-29T01:39:05.159Z,71.85
2023-01-29T01:42:13.591Z,71.97
2023-01-29T01:45:25.779Z,71.96
2023-01-29T01:48:30.908Z,72.02
2023-01-29T01:51:36.728Z,72.09
2023-01-29T01:54:45.447Z,72.09
2023-01-29T01:57:53.018Z,72.13
2023-01-29T02:00:56.651Z,72.20
2023-01-29T02:04:42.658Z,72.25
2023-01-29T02:08:08.296Z,72.21
2023-01-29T02:11:11.523Z,72.45
2023-01-29T02:14:14.429Z,72.35
2023-01-29T02:17:19.952Z,72.41
2023-01-29T02:20:28.960Z,72.41
2023-01-29T02:24:05.846Z,72.11
2023-01-29T02:27:12.921Z,71.92
2023-01-29T02:30:25.069Z,72.18
2023-01-29T02:34:07.104Z,72.27
2023-01-29T02:37:14.473Z,72.25
2023-01-29T02:40:40.892Z,72.31
2023-01-29T02:43:53.683Z,72.24
2023-01-29T02:47:02.779Z,72.30
2023-01-29T02:50:18.173Z,72.53
2023-01-29T02:53:39.692Z,72.48
2023-01-29T02:56:54.019Z,72.43
2023-01-29T03:00:15.921Z,72.41
2023-01-29T03:03:24.101Z,72.55
2023-01-29T03:06:35.367Z,72.80
2023-01-29T03:09:42.800Z,72.78
2023-01-29T03:12:51.311Z,72.93
2023-01-29T03:16:22.814Z,72.71
2023-01-29T03:19:44.501Z,72.83
2023-01-29T03:23:07.819Z,72.87
2023-01-29T03:26:35.141Z,73.12
2023-01-29T03:30:00.447Z,72.95
2023-01-29T03:33:17.826Z,72.98
2023-01-29T03:36:38.117Z,73.18
2023-01-29T03:39:42.105Z,73.12
2023-01-29T03:42:44.894Z,72.96
2023-01-29T03:46:10.763Z,73.06
2023-01-29T03:49:45.816Z,73.16
2023-01-29T03:53:02.789Z,73.35
2023-01-29T03:56:15.570Z,73.40
2023-01-29T03:59:35.530Z,73.43
2023-01-29T04:03:07.794Z,73.38
2023-01-29T04:06:23.926Z,73.50
2023-01-29T04:09:53.820Z,73.54
2023-01-29T04:13:01.796Z,73.43
2023-01-29T04:16:10.664Z,73.22
2023-01-29T04:19:28.228Z,73.41
2023-01-29T04:22:37.080Z,73.40
2023-01-29T04:25:47.955Z,73.28
2023-01-29T04:29:21.653Z,73.45
2023-01-29T04:32:52.120Z,73.46
2023-01-29T04:36:24.958Z,73.44
2023-01-29T04:39:38.874Z,73.67
2023-01-29T04:42:50.593Z,73.57
2023-01-29T04:46:28.744Z,73.46
2023-01-29T04:49:37.220Z,73.59
2023-01-29T04:52:51.594Z,73.67
2023-01-29T04:56:26.149Z,73.50
2023-01-29T04:59:55.319Z,73.61
2023-01-29T05:03:00.669Z,73.71
2023-01-29T05:06:07.922Z,73.58
2023-01-29T05:09:20.381Z,73.51
2023-01-29T05:12:27.299Z,73.58
2023-01-29T05:15:33.931Z,73.59
2023-01-29T05:18:36.688Z,73.56
2023-01-29T05:21:42.326Z,73.54
2023-01-29T05:24:46.671Z,73.60
2023-01-29T05:28:07.196Z,73.59
2023-01-29T05:31:10.176Z,73.55
2023-01-29T05:34:13.100Z,73.63
2023-01-29T05:37:15.979Z,73.70
2023-01-29T05:40:18.990Z,73.69
2023-01-29T05:43:27.338Z,73.89
2023-01-29T05:46:30.133Z,73.67
2023-01-29T05:49:32.955Z,73.64
2023-01-29T05:52:35.676Z,73.66
2023-01-29T05:55:44.174Z,73.78
2023-01-29T05:58:46.937Z,73.88
2023-01-29T06:01:49.809Z,73.65
2023-01-29T06:04:54.818Z,73.66
2023-01-29T06:07:57.837Z,73.62
2023-01-29T06:11:00.881Z,73.58
2023-01-29T06:14:03.703Z,73.66
2023-01-29T06:17:06.690Z,73.67
2023-01-29T06:20:10.487Z,73.55
2023-01-29T06:23:13.634Z,73.68
2023-01-29T06:26:16.677Z,73.47
2023-01-29T06:29:19.538Z,73.41
2023-01-29T06:32:22.501Z,73.49
2023-01-29T06:35:26.087Z,73.54
2023-01-29T06:38:32.501Z,73.58
2023-01-29T06:41:35.431Z,73.72
2023-01-29T06:44:38.323Z,73.79
2023-01-29T06:47:41.126Z,73.77
2023-01-29T06:50:44.460Z,73.68
2023-01-29T06:53:47.249Z,73.50
2023-01-29T06:56:49.997Z,73.57
2023-01-29T06:59:52.810Z,73.65
2023-01-29T07:02:55.576Z,73.66
2023-01-29T07:05:58.788Z,73.58
2023-01-29T07:09:01.968Z,73.56
2023-01-29T07:12:04.885Z,73.56
2023-01-29T07:15:09.447Z,73.66
2023-01-29T07:18:12.703Z,73.43
2023-01-29T07:21:15.533Z,73.45
2023-01-29T07:24:19.264Z,73.38
2023-01-29T07:27:23.650Z,73.61
2023-01-29T07:30:26.373Z,73.48
2023-01-29T07:33:29.114Z,73.70
2023-01-29T07:36:31.909Z,73.71
2023-01-29T07:39:34.734Z,73.82
2023-01-29T07:42:40.017Z,73.69
2023-01-29T07:45:42.841Z,73.70
2023-01-29T07:48:45.653Z,73.60
2023-01-29T07:51:48.505Z,73.68
2023-01-29T07:54:51.235Z,73.54
2023-01-29T07:57:58.757Z,73.53
2023-01-29T08:01:06.846Z,73.33
2023-01-29T08:04:09.604Z,73.37
2023-01-29T08:07:12.346Z,73.52
2023-01-29T08:10:15.456Z,73.55
2023-01-29T08:13:18.379Z,73.37
2023-01-29T08:16:21.219Z,73.51
2023-01-29T08:19:24.323Z,73.27
2023-01-29T08:22:28.380Z,73.49
2023-01-29T08:25:31.971Z,73.30
2023-01-29T08:28:35.381Z,73.25
2023-01-29T08:31:38.184Z,73.27
2023-01-29T08:34:40.989Z,73.49
2023-01-29T08:37:44.843Z,73.44
2023-01-29T08:40:47.584Z,73.34
2023-01-29T08:43:50.360Z,72.82
2023-01-29T08:46:53.193Z,72.58
2023-01-29T08:49:55.954Z,72.72
2023-01-29T08:53:00.490Z,72.81
2023-01-29T08:56:03.575Z,72.87
2023-01-29T08:59:08.007Z,73.00
2023-01-29T09:02:12.117Z,72.75
2023-01-29T09:05:15.644Z,72.68
2023-01-29T09:08:18.697Z,72.41
2023-01-29T09:11:21.461Z,72.47
2023-01-29T09:14:24.226Z,72.44
2023-01-29T09:17:26.992Z,72.62
2023-01-29T09:20:29.757Z,72.57
2023-01-29T09:23:32.653Z,72.34
2023-01-29T09:26:35.871Z,72.35
2023-01-29T09:29:40.664Z,72.15
2023-01-29T09:32:53.116Z,71.56
2023-01-29T09:35:57.205Z,71.72
2023-01-29T09:38:59.974Z,72.03
2023-01-29T09:42:31.633Z,72.53
2023-01-29T09:45:36.845Z,71.95
2023-01-29T09:48:39.918Z,72.43
2023-01-29T09:51:47.965Z,72.50
2023-01-29T09:55:14.714Z,72.70
2023-01-29T09:58:25.511Z,72.95
2023-01-29T10:01:49.378Z,73.22
2023-01-29T10:05:15.738Z,73.42
2023-01-29T10:08:59.479Z,73.23
2023-01-29T10:12:20.381Z,73.18
2023-01-29T10:15:55.561Z,73.05
2023-01-29T10:19:22.123Z,73.22
2023-01-29T10:22:43.673Z,73.50
2023-01-29T10:25:48.100Z,73.37
2023-01-29T10:28:54.940Z,73.52
2023-01-29T10:32:04.933Z,73.67
2023-01-29T10:35:22.822Z,73.73
2023-01-29T10:38:42.439Z,73.98
2023-01-29T10:41:45.258Z,74.34
2023-01-29T10:44:53.871Z,74.52
2023-01-29T10:48:06.092Z,74.58
2023-01-29T10:51:38.376Z,74.68
2023-01-29T10:54:43.782Z,74.93
2023-01-29T10:58:19.519Z,75.40
2023-01-29T11:01:22.913Z,75.45
2023-01-29T11:04:28.355Z,75.23
2023-01-29T11:07:32.076Z,75.80
2023-01-29T11:10:43.350Z,76.06
2023-01-29T11:14:13.088Z,76.21
2023-01-29T11:17:21.000Z,76.43
2023-01-29T11:20:28.702Z,76.83
2023-01-29T11:23:33.813Z,76.83
2023-01-29T11:26:40.711Z,77.15
2023-01-29T11:29:45.047Z,77.21
2023-01-29T11:33:08.273Z,77.21
2023-01-29T11:36:33.056Z,77.12
2023-01-29T11:39:44.739Z,77.28
2023-01-29T11:42:48.749Z,77.35
2023-01-29T11:45:54.794Z,77.51
2023-01-29T11:48:59.259Z,77.56
2023-01-29T11:52:10.266Z,77.49
2023-01-29T11:55:22.613Z,77.66
2023-01-29T11:58:37.369Z,77.63
2023-01-29T12:01:49.375Z,77.62
2023-01-29T12:04:55.034Z,77.84
2023-01-29T12:08:00.327Z,77.95
2023-01-29T12:11:15.917Z,77.94
2023-01-29T12:14:30.288Z,77.82
2023-01-29T12:17:37.932Z,77.93
2023-01-29T12:21:05.845Z,78.11
2023-01-29T12:24:45.532Z,77.79
2023-01-29T12:27:57.402Z,77.99
2023-01-29T12:31:18.548Z,78.00
2023-01-29T12:34:27.029Z,78.02
2023-01-29T12:37:32.439Z,78.00
2023-01-29T12:40:44.205Z,78.13
2023-01-29T12:43:52.339Z,78.01
2023-01-29T12:47:00.587Z,78.25
2023-01-29T12:53:41.333Z,78.43
2023-01-29T12:56:53.771Z,78.40
2023-01-29T13:00:02.669Z,78.49
2023-01-29T13:03:20.626Z,78.47
2023-01-29T13:06:35.390Z,78.48
2023-01-29T13:09:42.200Z,78.74
2023-01-29T13:12:53.852Z,78.63
2023-01-29T13:15:57.631Z,78.85
2023-01-29T13:19:32.601Z,79.06
2023-01-29T13:22:39.453Z,78.90
2023-01-29T13:25:42.175Z,79.14
2023-01-29T13:28:46.030Z,79.20
2023-01-29T13:35:14.502Z,79.64
2023-01-29T13:38:36.579Z,79.88
2023-01-29T13:41:45.464Z,80.11
2023-01-29T13:44:51.560Z,80.46
2023-01-29T13:48:10.698Z,80.48
2023-01-29T13:51:20.053Z,80.77
2023-01-29T13:54:26.829Z,80.99
2023-01-29T13:57:34.697Z,81.07
2023-01-29T14:00:37.549Z,81.15
2023-01-29T14:04:03.686Z,81.12
2023-01-29T14:07:45.736Z,81.16
2023-01-29T14:11:17.586Z,81.03
2023-01-29T14:14:48.283Z,81.26
2023-01-29T14:18:01.749Z,81.47
2023-01-29T14:21:07.488Z,81.37
2023-01-29T14:24:10.430Z,81.46
2023-01-29T14:27:21.912Z,81.38
2023-01-29T14:30:28.075Z,81.35
2023-01-29T14:33:38.234Z,81.45
2023-01-29T14:36:50.851Z,81.61
2023-01-29T14:39:58.967Z,81.76
2023-01-29T14:43:11.410Z,81.74
2023-01-29T14:46:36.168Z,81.86
2023-01-29T14:49:58.879Z,82.12
2023-01-29T14:53:40.460Z,82.13
2023-01-29T14:57:06.712Z,82.15
2023-01-29T15:00:28.216Z,82.15
2023-01-29T15:04:07.261Z,82.07
2023-01-29T15:07:10.051Z,82.02
2023-01-29T15:10:35.813Z,82.02
2023-01-29T15:13:57.261Z,82.05
2023-01-29T15:17:17.211Z,81.82
2023-01-29T15:20:32.751Z,81.97
2023-01-29T15:23:35.599Z,81.90
2023-01-29T15:26:40.756Z,81.93
2023-01-29T15:29:48.830Z,81.91
2023-01-29T15:32:51.773Z,82.08
2023-01-29T15:36:09.357Z,82.30
2023-01-29T15:39:12.095Z,82.11
2023-01-29T15:42:21.669Z,82.13
2023-01-29T15:45:35.048Z,82.21
2023-01-29T15:48:41.146Z,82.29
2023-01-29T15:51:47.621Z,82.21
2023-01-29T15:54:51.402Z,82.29
2023-01-29T15:57:54.515Z,82.21
2023-01-29T16:00:59.232Z,82.23
2023-01-29T16:04:03.844Z,82.21
2023-01-29T16:07:06.684Z,82.28
2023-01-29T16:10:24.488Z,82.22
2023-01-29T16:13:33.812Z,82.37
2023-01-29T16:16:36.878Z,82.43
2023-01-29T16:19:39.825Z,82.43
2023-01-29T16:22:42.900Z,82.45
2023-01-29T16:25:46.035Z,82.49
2023-01-29T16:28:49.013Z,82.55
2023-01-29T16:32:00.529Z,82.48
2023-01-29T16:35:04.092Z,82.48
2023-01-29T16:38:21.979Z,82.59
2023-01-29T16:41:24.734Z,82.65
2023-01-29T16:44:39.308Z,82.62
2023-01-29T16:47:42.128Z,82.88
2023-01-29T16:50:54.668Z,82.91
2023-01-29T16:54:12.526Z,82.95
2023-01-29T16:57:19.993Z,82.92
2023-01-29T17:00:30.736Z,82.88
2023-01-29T17:03:35.294Z,82.86
2023-01-29T17:06:47.818Z,82.75
2023-01-29T17:09:54.321Z,82.75
2023-01-29T17:13:02.707Z,82.65
2023-01-29T17:16:16.074Z,82.56
2023-01-29T17:19:23.805Z,82.70
2023-01-29T17:22:26.566Z,82.78
2023-01-29T17:25:29.732Z,82.76
2023-01-29T17:28:33.649Z,82.82
2023-01-29T17:31:38.861Z,82.72
2023-01-29T17:34:41.695Z,82.64
2023-01-29T17:37:51.284Z,82.61
2023-01-29T17:40:55.509Z,82.82
2023-01-29T17:43:58.401Z,82.89
2023-01-29T17:47:03.435Z,82.87
2023-01-29T17:50:25.458Z,82.97
2023-01-29T17:53:43.299Z,83.02
2023-01-29T17:56:47.937Z,83.00
2023-01-29T17:59:50.930Z,83.17
2023-01-29T18:02:54.562Z,83.14
2023-01-29T18:05:58.138Z,83.20
2023-01-29T18:09:01.501Z,83.20
2023-01-29T18:12:10.086Z,83.11
2023-01-29T18:15:14.405Z,83.19
2023-01-29T18:18:23.884Z,83.15
2023-01-29T18:21:26.638Z,83.23
2023-01-29T18:24:32.085Z,83.14
2023-01-29T18:27:36.735Z,83.17
2023-01-29T18:30:39.582Z,83.23
2023-01-29T18:33:42.371Z,83.27
2023-01-29T18:36:49.599Z,83.27
2023-01-29T18:39:53.844Z,83.25
2023-01-29T18:42:58.088Z,83.32
2023-01-29T18:46:06.009Z,83.44
2023-01-29T18:49:08.813Z,83.46
2023-01-29T18:52:11.751Z,83.38
2023-01-29T18:55:17.082Z,83.43
2023-01-29T18:58:29.765Z,83.39
2023-01-29T19:01:41.335Z,83.37
2023-01-29T19:04:45.419Z,83.55
2023-01-29T19:07:48.613Z,83.70
2023-01-29T19:10:51.374Z,83.78
2023-01-29T19:13:56.849Z,83.74
2023-01-29T19:17:02.803Z,83.83
2023-01-29T19:20:06.193Z,84.01
2023-01-29T19:23:10.994Z,83.96
2023-01-29T19:26:14.790Z,84.13
2023-01-29T19:29:17.761Z,84.21
2023-01-29T19:32:23.666Z,84.07
2023-01-29T19:35:26.548Z,84.29
2023-01-29T19:38:33.703Z,84.39
2023-01-29T19:41:37.517Z,84.23
2023-01-29T19:44:41.307Z,84.47
2023-01-29T19:47:44.582Z,84.24
2023-01-29T19:50:58.814Z,84.40
2023-01-29T19:54:02.385Z,84.42
2023-01-29T19:57:07.119Z,84.52
2023-01-29T20:00:12.109Z,84.56
2023-01-29T20:03:15.418Z,84.64
2023-01-29T20:06:23.741Z,84.60
2023-01-29T20:09:29.468Z,84.53
2023-01-29T20:12:32.187Z,84.83
2023-01-29T20:15:35.318Z,84.68
2023-01-29T20:18:38.097Z,84.65
2023-01-29T20:21:41.157Z,84.91
2023-01-29T20:24:44.639Z,84.85
2023-01-29T20:27:47.355Z,84.98
2023-01-29T20:30:55.501Z,85.03
2023-01-29T20:34:13.123Z,85.01
2023-01-29T20:37:36.400Z,85.12
2023-01-29T20:40:39.174Z,85.14
2023-01-29T20:43:43.124Z,85.22
2023-01-29T20:46:46.719Z,85.20
2023-01-29T20:49:49.548Z,85.14
2023-01-29T20:52:55.052Z,85.31
2023-01-29T20:55:58.022Z,85.35
2023-01-29T20:59:02.983Z,85.38
2023-01-29T21:02:05.810Z,85.51
2023-01-29T21:05:09.035Z,85.53
2023-01-29T21:08:12.123Z,85.46
2023-01-29T21:11:14.930Z,85.64
2023-01-29T21:14:17.664Z,85.51
2023-01-29T21:17:20.965Z,85.55
2023-01-29T21:20:24.729Z,85.61
2023-01-29T21:23:28.937Z,85.44
2023-01-29T21:26:31.810Z,85.51
2023-01-29T21:29:37.796Z,85.50
2023-01-29T21:32:40.674Z,85.55
2023-01-29T21:35:43.417Z,85.60
2023-01-29T21:38:46.370Z,85.61
2023-01-29T21:42:09.857Z,85.63
2023-01-29T21:45:12.759Z,85.69
2023-01-29T21:48:15.549Z,85.80
2023-01-29T21:51:18.949Z,85.78
2023-01-29T21:54:22.042Z,85.88
2023-01-29T21:57:28.703Z,85.83
2023-01-29T22:00:31.544Z,85.94
2023-01-29T22:03:34.331Z,85.80
2023-01-29T22:06:39.591Z,85.90
2023-01-29T22:09:42.352Z,85.82
2023-01-29T22:12:47.956Z,85.94
2023-01-29T22:15:55.037Z,85.86
2023-01-29T22:18:58.740Z,85.94
2023-01-29T22:22:01.585Z,85.84
2023-01-29T22:25:05.199Z,85.96
2023-01-29T22:28:08.088Z,85.73
2023-01-29T22:31:11.190Z,85.78
2023-01-29T22:34:15.020Z,85.93
2023-01-29T22:37:19.957Z,85.73
2023-01-29T22:40:25.322Z,85.84
2023-01-29T22:43:29.266Z,85.66
2023-01-29T22:46:32.277Z,85.74
2023-01-29T22:49:35.165Z,85.66
2023-01-29T22:52:42.773Z,85.62
2023-01-29T22:55:55.534Z,85.66
2023-01-29T22:59:00.470Z,85.58
2023-01-29T23:02:03.233Z,85.72
2023-01-29T23:05:07.157Z,85.99
2023-01-29T23:08:09.921Z,85.83
2023-01-29T23:11:15.287Z,85.98
2023-01-29T23:14:18.191Z,86.08
2023-01-29T23:17:20.968Z,85.96
2023-01-29T23:20:30.891Z,85.89
2023-01-29T23:23:35.954Z,85.77
2023-01-29T23:26:57.684Z,85.78
2023-01-29T23:30:00.429Z,85.70
2023-01-29T23:33:03.228Z,85.75
2023-01-29T23:36:07.633Z,85.66
2023-01-29T23:39:11.015Z,85.61
2023-01-29T23:42:13.745Z,85.55
2023-01-29T23:45:16.627Z,85.63
2023-01-29T23:48:20.351Z,85.68
2023-01-29T23:51:23.595Z,85.74
2023-01-29T23:54:26.775Z,85.57
2023-01-29T23:57:29.542Z,85.54
